Time;durP1;ratioP1;P1;durP2;ratioP2;P2;SDS_P1;SDS_P2;PMS_P1;PMS_P2;Temp;Humidity;BMP_temperature;BMP_pressure;BME280_temperature;BME280_humidity;BME280_pressure;Samples;Min_cycle;Max_cycle;Signal;HPM_P1;HPM_P2
2021/10/24 00:01:39;;;;;;;13.90;8.85;;;7.50;99.90;;;;;;5087880;28;20529;-43
2021/10/24 00:04:05;;;;;;;12.27;8.48;;;7.50;99.90;;;;;;5088618;28;20352;-46
2021/10/24 00:06:30;;;;;;;11.82;7.88;;;7.50;99.90;;;;;;5087427;28;20073;-42
2021/10/24 00:08:56;;;;;;;11.07;8.18;;;7.50;99.90;;;;;;5088197;28;20070;-43
2021/10/24 00:11:21;;;;;;;11.38;8.00;;;7.50;99.90;;;;;;5087850;28;20550;-44
2021/10/24 00:13:47;;;;;;;11.13;8.48;;;7.40;99.90;;;;;;5087080;28;20028;-44
2021/10/24 00:16:13;;;;;;;11.88;8.50;;;7.40;99.90;;;;;;5088352;28;20016;-44
2021/10/24 00:18:38;;;;;;;12.60;8.50;;;7.50;99.90;;;;;;5088016;28;20387;-43
2021/10/24 00:21:04;;;;;;;11.68;8.43;;;7.40;99.90;;;;;;5087691;28;20359;-44
2021/10/24 00:23:30;;;;;;;11.77;8.45;;;7.40;99.90;;;;;;5087893;28;20028;-43
2021/10/24 00:25:55;;;;;;;12.23;8.63;;;7.40;99.90;;;;;;5087793;28;20136;-43
2021/10/24 00:28:21;;;;;;;11.07;8.25;;;7.40;99.90;;;;;;5087461;28;20067;-44
2021/10/24 00:30:47;;;;;;;10.40;8.02;;;7.40;99.90;;;;;;5087978;28;20471;-44
2021/10/24 00:33:13;;;;;;;14.48;8.40;;;7.40;99.90;;;;;;5087884;28;20479;-44
2021/10/24 00:35:39;;;;;;;12.70;8.40;;;7.40;99.90;;;;;;5087065;28;20039;-42
2021/10/24 00:38:05;;;;;;;12.73;8.65;;;7.40;99.90;;;;;;5087188;28;20024;-43
2021/10/24 00:40:30;;;;;;;11.85;8.88;;;7.40;99.90;;;;;;5087655;28;20051;-43
2021/10/24 00:42:56;;;;;;;13.30;9.27;;;7.30;99.90;;;;;;5086807;28;20017;-44
2021/10/24 00:45:24;;;;;;;12.95;8.73;;;7.30;99.90;;;;;;5087986;28;20035;-44
2021/10/24 00:47:50;;;;;;;14.05;9.20;;;7.30;99.90;;;;;;5086873;28;20055;-44
2021/10/24 00:50:16;;;;;;;9.52;6.97;;;7.30;99.90;;;;;;5087962;28;20601;-44
2021/10/24 00:52:42;;;;;;;11.25;8.13;;;7.30;99.90;;;;;;5087094;28;20114;-43
2021/10/24 00:55:08;;;;;;;11.52;7.80;;;7.30;99.90;;;;;;5087130;28;20502;-44
2021/10/24 00:57:34;;;;;;;13.23;7.80;;;7.30;99.90;;;;;;5087408;28;20031;-43
2021/10/24 01:00:07;;;;;;;10.13;7.65;;;7.30;99.90;;;;;;5076153;28;20044;-44
2021/10/24 01:02:34;;;;;;;11.77;7.85;;;7.30;99.90;;;;;;5086613;28;20399;-43
2021/10/24 01:05:00;;;;;;;10.30;7.93;;;7.30;99.90;;;;;;5087283;28;20028;-44
2021/10/24 01:07:25;;;;;;;9.18;8.05;;;7.30;99.90;;;;;;5087050;28;20153;-44
2021/10/24 01:09:51;;;;;;;14.52;8.40;;;7.30;99.90;;;;;;5086448;28;20024;-44
2021/10/24 01:12:16;;;;;;;12.25;8.20;;;7.20;99.90;;;;;;5087829;28;20021;-44
2021/10/24 01:14:42;;;;;;;10.60;7.50;;;7.20;99.90;;;;;;5086693;28;20028;-43
2021/10/24 01:17:08;;;;;;;10.05;8.02;;;7.20;99.90;;;;;;5086998;28;20066;-43
2021/10/24 01:19:33;;;;;;;14.02;8.23;;;7.20;99.90;;;;;;5086874;28;20036;-44
2021/10/24 01:21:59;;;;;;;11.82;7.30;;;7.20;99.90;;;;;;5087297;28;20046;-42
2021/10/24 01:24:24;;;;;;;11.77;8.25;;;7.20;99.90;;;;;;5086362;28;20039;-43
2021/10/24 01:26:50;;;;;;;11.88;7.65;;;7.20;99.90;;;;;;5087253;28;20495;-43
2021/10/24 01:29:16;;;;;;;11.93;7.35;;;7.20;99.90;;;;;;5087405;28;20039;-44
2021/10/24 01:31:42;;;;;;;10.88;7.80;;;7.20;99.90;;;;;;5086149;28;20035;-42
2021/10/24 01:34:07;;;;;;;9.38;7.60;;;7.20;99.90;;;;;;5087169;28;20093;-44
2021/10/24 01:36:33;;;;;;;10.27;8.25;;;7.10;99.90;;;;;;5086979;28;20073;-43
2021/10/24 01:38:59;;;;;;;11.23;8.10;;;7.20;99.90;;;;;;5086071;28;20035;-44
2021/10/24 01:41:28;;;;;;;10.43;7.90;;;7.10;99.90;;;;;;5086853;28;20063;-43
2021/10/24 01:43:54;;;;;;;15.57;7.20;;;7.10;99.90;;;;;;5086743;28;20028;-43
2021/10/24 01:46:20;;;;;;;9.07;7.80;;;7.10;99.90;;;;;;5087069;28;20016;-43
2021/10/24 01:48:47;;;;;;;13.40;8.05;;;7.10;99.90;;;;;;5088912;28;20066;-43
2021/10/24 01:51:14;;;;;;;8.73;7.60;;;7.10;99.90;;;;;;5090614;28;20016;-44
2021/10/24 01:53:42;;;;;;;13.05;7.70;;;7.10;99.90;;;;;;5090487;28;20076;-44
2021/10/24 01:56:08;;;;;;;9.68;7.07;;;7.10;99.90;;;;;;5090985;28;20028;-43
2021/10/24 01:58:34;;;;;;;9.27;7.50;;;7.10;99.90;;;;;;5090071;28;20024;-44
2021/10/24 02:00:59;;;;;;;12.23;7.78;;;7.10;99.90;;;;;;5090305;28;20032;-43
2021/10/24 02:03:25;;;;;;;9.50;7.53;;;7.00;99.90;;;;;;5090666;28;20027;-44
2021/10/24 02:05:51;;;;;;;9.55;8.10;;;7.00;99.90;;;;;;5089570;28;20721;-44
2021/10/24 02:08:17;;;;;;;9.93;7.80;;;7.00;99.90;;;;;;5090935;28;20020;-44
2021/10/24 02:10:43;;;;;;;10.88;8.20;;;7.00;99.90;;;;;;5090005;28;20024;-44
2021/10/24 02:13:13;;;;;;;10.15;8.15;;;7.00;99.90;;;;;;5089915;28;20616;-43
2021/10/24 02:15:39;;;;;;;9.57;8.02;;;7.00;99.90;;;;;;5089728;28;20558;-43
2021/10/24 02:18:06;;;;;;;11.38;8.57;;;7.00;99.90;;;;;;5090530;28;20016;-43
2021/10/24 02:20:34;;;;;;;12.90;8.65;;;7.00;99.90;;;;;;5089296;28;20479;-43
2021/10/24 02:23:00;;;;;;;10.32;8.93;;;6.90;99.90;;;;;;5090708;28;20470;-45
2021/10/24 02:25:25;;;;;;;10.10;8.05;;;6.90;99.90;;;;;;5090239;28;20028;-43
2021/10/24 02:27:51;;;;;;;15.13;8.70;;;6.90;99.90;;;;;;5089652;28;20023;-43
2021/10/24 02:30:19;;;;;;;10.45;8.10;;;6.90;99.90;;;;;;5090259;28;20437;-44
2021/10/24 02:32:45;;;;;;;12.27;8.65;;;6.90;99.90;;;;;;5089503;28;20089;-43
2021/10/24 02:35:13;;;;;;;12.32;8.40;;;6.80;99.90;;;;;;5089953;28;20028;-43
2021/10/24 02:37:39;;;;;;;12.93;8.63;;;6.80;99.90;;;;;;5089376;28;20042;-43
2021/10/24 02:40:07;;;;;;;11.27;8.82;;;6.80;99.90;;;;;;5090395;28;20198;-42
2021/10/24 02:42:32;;;;;;;11.77;9.00;;;6.80;99.90;;;;;;5089226;28;20024;-43
2021/10/24 02:44:58;;;;;;;15.13;8.40;;;6.80;99.90;;;;;;5089922;28;20825;-43
2021/10/24 02:47:24;;;;;;;12.02;8.50;;;6.80;99.90;;;;;;5089122;28;20028;-44
2021/10/24 02:49:49;;;;;;;12.77;9.82;;;6.80;99.90;;;;;;5090253;28;20077;-43
2021/10/24 02:52:15;;;;;;;11.05;8.38;;;6.80;99.90;;;;;;5089969;28;20056;-44
2021/10/24 02:54:41;;;;;;;11.35;8.18;;;6.70;99.90;;;;;;5088718;28;20170;-44
2021/10/24 02:57:07;;;;;;;12.80;8.57;;;6.70;99.90;;;;;;5089514;28;20028;-43
2021/10/24 02:59:33;;;;;;;11.50;8.07;;;6.70;99.90;;;;;;5088837;28;20043;-44
2021/10/24 03:01:59;;;;;;;12.13;8.68;;;6.70;99.90;;;;;;5088765;28;20083;-44
2021/10/24 03:04:34;;;;;;;16.48;9.60;;;6.70;99.90;;;;;;5089064;28;20380;-44
2021/10/24 03:06:59;;;;;;;12.63;8.95;;;6.70;99.90;;;;;;5088994;28;20060;-42
2021/10/24 03:09:25;;;;;;;11.82;8.82;;;6.60;99.90;;;;;;5088713;28;20031;-43
2021/10/24 03:11:51;;;;;;;11.13;9.35;;;6.60;99.90;;;;;;5089211;28;20110;-44
2021/10/24 03:14:16;;;;;;;10.52;8.65;;;6.60;99.90;;;;;;5089713;28;20157;-44
2021/10/24 03:16:43;;;;;;;10.10;8.52;;;6.60;99.90;;;;;;5088188;28;20042;-43
2021/10/24 03:19:09;;;;;;;12.07;8.40;;;6.60;99.90;;;;;;5089171;28;20036;-43
2021/10/24 03:21:35;;;;;;;11.50;8.80;;;6.60;99.90;;;;;;5089458;28;20026;-44
2021/10/24 03:24:02;;;;;;;14.20;8.32;;;6.60;99.90;;;;;;5088248;28;20035;-44
2021/10/24 03:26:28;;;;;;;12.13;8.10;;;6.50;99.90;;;;;;5088990;28;20020;-42
2021/10/24 03:28:56;;;;;;;10.63;8.50;;;6.50;99.90;;;;;;5088719;28;20031;-44
2021/10/24 03:31:22;;;;;;;10.43;8.45;;;6.50;99.90;;;;;;5068140;28;20392;-43
2021/10/24 03:33:48;;;;;;;11.50;9.10;;;6.50;99.90;;;;;;5082805;28;20024;-43
2021/10/24 03:36:16;;;;;;;10.43;7.95;;;6.50;99.90;;;;;;5089172;28;20475;-43
2021/10/24 03:38:42;;;;;;;11.45;8.25;;;6.50;99.90;;;;;;5087442;28;20467;-43
2021/10/24 03:41:08;;;;;;;11.43;8.43;;;6.50;99.90;;;;;;5089042;28;20023;-43
2021/10/24 03:43:34;;;;;;;12.10;8.55;;;6.50;99.90;;;;;;5087621;28;20023;-43
2021/10/24 03:45:59;;;;;;;9.88;7.53;;;6.50;99.90;;;;;;5088552;28;20119;-43
2021/10/24 03:48:25;;;;;;;10.27;7.97;;;6.50;99.90;;;;;;5088476;28;20506;-44
2021/10/24 03:50:51;;;;;;;9.88;8.18;;;6.50;99.90;;;;;;5087993;28;20550;-44
2021/10/24 03:53:17;;;;;;;11.88;8.43;;;6.40;99.90;;;;;;5088741;28;20047;-43
2021/10/24 03:55:43;;;;;;;13.13;8.93;;;6.40;99.90;;;;;;5088118;28;20028;-44
2021/10/24 03:58:08;;;;;;;13.23;8.23;;;6.40;99.90;;;;;;5087862;28;20024;-45
2021/10/24 04:00:34;;;;;;;9.85;7.78;;;6.40;99.90;;;;;;5088199;28;20458;-44
2021/10/24 04:03:04;;;;;;;13.15;8.23;;;6.40;99.90;;;;;;5088365;28;20034;-43
2021/10/24 04:05:30;;;;;;;9.70;7.40;;;6.40;99.90;;;;;;5087546;28;20099;-44
2021/10/24 04:07:56;;;;;;;14.18;7.55;;;6.30;99.90;;;;;;5088357;28;20119;-43
2021/10/24 04:10:24;;;;;;;13.65;8.45;;;6.40;99.90;;;;;;5088128;28;20111;-44
2021/10/24 04:12:50;;;;;;;12.27;8.32;;;6.30;99.90;;;;;;5086718;28;20576;-44
2021/10/24 04:15:17;;;;;;;11.68;8.20;;;6.40;99.90;;;;;;5088218;28;20146;-44
2021/10/24 04:17:42;;;;;;;10.13;7.90;;;6.40;99.90;;;;;;5087605;28;20794;-44
2021/10/24 04:20:10;;;;;;;12.07;8.02;;;6.40;99.90;;;;;;5087634;28;20036;-43
2021/10/24 04:22:37;;;;;;;8.77;7.85;;;6.30;99.90;;;;;;5087790;28;20096;-43
2021/10/24 04:25:05;;;;;;;10.98;7.75;;;6.30;99.90;;;;;;5087724;28;20042;-43
2021/10/24 04:27:32;;;;;;;10.63;7.35;;;6.30;99.90;;;;;;5087185;28;20020;-44
2021/10/24 04:29:58;;;;;;;10.48;7.25;;;6.30;99.90;;;;;;5087293;28;20046;-43
2021/10/24 04:32:24;;;;;;;11.05;8.02;;;6.30;99.90;;;;;;5088147;28;20085;-42
2021/10/24 04:34:49;;;;;;;10.90;8.07;;;6.30;99.90;;;;;;5086940;28;20024;-43
2021/10/24 04:37:15;;;;;;;10.20;7.13;;;6.30;99.90;;;;;;5088117;28;20028;-44
2021/10/24 04:39:40;;;;;;;11.57;7.65;;;6.30;99.90;;;;;;5087240;28;20403;-44
2021/10/24 04:42:06;;;;;;;11.60;8.60;;;6.30;99.90;;;;;;5087379;28;20032;-42
2021/10/24 04:44:31;;;;;;;10.63;6.47;;;6.30;99.90;;;;;;5087663;28;20103;-42
2021/10/24 04:46:57;;;;;;;10.30;8.18;;;6.30;99.90;;;;;;5087190;28;20532;-43
2021/10/24 04:49:23;;;;;;;10.05;8.25;;;6.20;99.90;;;;;;5088128;28;20479;-43
2021/10/24 04:51:49;;;;;;;13.15;7.90;;;6.20;99.90;;;;;;5087339;28;20023;-43
2021/10/24 04:54:15;;;;;;;12.07;7.93;;;6.20;99.90;;;;;;5087200;28;20048;-43
2021/10/24 04:56:40;;;;;;;10.48;7.72;;;6.20;99.90;;;;;;5086861;28;20119;-43
2021/10/24 04:59:06;;;;;;;10.05;7.70;;;6.20;99.90;;;;;;5087598;28;20074;-43
2021/10/24 05:01:31;;;;;;;12.65;8.10;;;6.20;99.90;;;;;;5087093;28;20016;-43
2021/10/24 05:03:57;;;;;;;11.18;8.05;;;6.20;99.90;;;;;;5087215;28;20023;-42
2021/10/24 05:06:22;;;;;;;10.35;8.07;;;6.10;99.90;;;;;;5087442;28;20421;-43
2021/10/24 05:08:48;;;;;;;10.32;8.10;;;6.10;99.90;;;;;;5086686;28;20028;-43
2021/10/24 05:11:13;;;;;;;14.18;8.48;;;6.10;99.90;;;;;;5087462;28;20032;-43
2021/10/24 05:13:39;;;;;;;9.77;7.85;;;6.10;99.90;;;;;;5086982;28;20043;-44
2021/10/24 05:16:05;;;;;;;11.65;7.95;;;6.10;99.90;;;;;;5086909;28;20031;-44
2021/10/24 05:18:31;;;;;;;11.02;7.57;;;6.10;99.90;;;;;;5087497;28;20023;-43
2021/10/24 05:20:57;;;;;;;11.35;8.15;;;6.10;99.90;;;;;;5087067;28;20043;-43
2021/10/24 05:23:22;;;;;;;10.68;7.43;;;6.10;99.90;;;;;;5088406;28;20440;-42
2021/10/24 05:25:48;;;;;;;10.48;8.00;;;6.10;99.90;;;;;;5091441;28;20032;-43
2021/10/24 05:28:13;;;;;;;11.27;7.57;;;6.00;99.90;;;;;;5091122;28;20028;-43
2021/10/24 05:30:39;;;;;;;11.10;7.75;;;6.10;99.90;;;;;;5090457;28;20040;-43
2021/10/24 05:33:04;;;;;;;13.15;8.63;;;6.00;99.90;;;;;;5091479;28;20024;-44
2021/10/24 05:35:30;;;;;;;11.30;8.07;;;6.00;99.90;;;;;;5091498;28;20071;-43
2021/10/24 05:37:55;;;;;;;11.20;7.85;;;6.00;99.90;;;;;;5090441;28;20032;-43
2021/10/24 05:40:21;;;;;;;11.65;7.68;;;6.00;99.90;;;;;;5091482;28;20484;-43
2021/10/24 05:42:46;;;;;;;10.80;7.38;;;6.00;99.90;;;;;;5090851;28;20028;-43
2021/10/24 05:45:12;;;;;;;10.02;7.65;;;6.00;99.90;;;;;;5090813;28;20757;-44
2021/10/24 05:47:38;;;;;;;8.80;7.38;;;6.00;99.90;;;;;;5090851;28;20016;-43
2021/10/24 05:50:08;;;;;;;10.55;7.20;;;6.00;99.90;;;;;;5090926;28;20032;-43
2021/10/24 05:52:33;;;;;;;10.60;7.80;;;5.90;99.90;;;;;;5090737;28;20107;-45
2021/10/24 05:54:59;;;;;;;10.75;7.85;;;6.00;99.90;;;;;;5090379;28;20062;-44
2021/10/24 05:57:25;;;;;;;13.07;7.20;;;5.90;99.90;;;;;;5089943;28;20081;-45
2021/10/24 05:59:50;;;;;;;9.18;7.22;;;5.90;99.90;;;;;;5090464;28;20097;-44
2021/10/24 06:02:19;;;;;;;10.13;7.18;;;5.90;99.90;;;;;;5090793;28;20054;-44
2021/10/24 06:04:47;;;;;;;10.40;7.65;;;5.90;99.90;;;;;;5085778;28;20618;-44
2021/10/24 06:07:13;;;;;;;10.38;7.50;;;5.90;99.90;;;;;;5090785;28;20017;-44
2021/10/24 06:12:38;;;;;;;11.55;7.22;;;5.90;99.90;;;;;;5090291;28;20028;-43
2021/10/24 06:15:02;;;;;;;11.20;7.03;;;5.90;99.90;;;;;;5089548;28;20036;-43
2021/10/24 06:17:27;;;;;;;8.95;6.63;;;5.90;99.90;;;;;;5090504;28;20537;-43
2021/10/24 06:19:53;;;;;;;9.68;6.88;;;5.90;99.90;;;;;;5089182;28;20032;-44
2021/10/24 06:22:19;;;;;;;11.63;7.93;;;5.90;99.90;;;;;;5090613;28;20024;-43
2021/10/24 06:24:45;;;;;;;14.43;8.77;;;5.90;99.90;;;;;;5089377;28;20032;-43
2021/10/24 06:27:10;;;;;;;9.82;7.60;;;5.90;99.90;;;;;;5089676;28;20493;-43
2021/10/24 06:29:36;;;;;;;11.88;8.55;;;5.90;99.90;;;;;;5090194;28;20115;-43
2021/10/24 06:32:01;;;;;;;12.93;8.73;;;5.90;99.90;;;;;;5089983;28;20430;-43
2021/10/24 06:34:27;;;;;;;14.02;9.63;;;5.90;99.90;;;;;;5088412;28;20020;-43
2021/10/24 06:36:52;;;;;;;14.35;9.40;;;5.90;99.90;;;;;;5090144;28;20111;-44
2021/10/24 06:39:18;;;;;;;15.85;9.65;;;5.80;99.90;;;;;;5089841;28;20048;-44
2021/10/24 06:41:43;;;;;;;13.95;9.40;;;5.90;99.90;;;;;;5089571;28;20024;-44
2021/10/24 06:44:09;;;;;;;13.98;10.05;;;5.90;99.90;;;;;;5090277;28;20028;-43
2021/10/24 06:46:34;;;;;;;14.60;9.80;;;5.90;99.90;;;;;;5078095;28;20379;-43
2021/10/24 06:49:00;;;;;;;12.32;9.20;;;5.80;99.90;;;;;;5089792;28;20028;-43
2021/10/24 06:51:25;;;;;;;14.32;9.38;;;5.90;99.90;;;;;;5090392;28;20400;-43
2021/10/24 06:53:51;;;;;;;12.65;8.90;;;5.80;99.90;;;;;;5088843;28;20078;-43
2021/10/24 06:56:16;;;;;;;13.43;9.35;;;5.90;99.90;;;;;;5089757;28;20020;-43
2021/10/24 06:58:42;;;;;;;15.90;10.25;;;5.80;99.90;;;;;;5089512;28;20043;-44
2021/10/24 07:01:08;;;;;;;15.20;9.70;;;5.80;99.90;;;;;;5088598;28;20036;-43
2021/10/24 07:03:33;;;;;;;13.55;10.90;;;5.90;99.90;;;;;;5089828;28;20016;-44
2021/10/24 07:05:59;;;;;;;12.35;9.55;;;5.80;99.90;;;;;;5089244;28;20044;-44
2021/10/24 07:08:24;;;;;;;14.27;10.13;;;5.90;99.90;;;;;;5088813;28;20020;-44
2021/10/24 07:10:50;;;;;;;13.75;9.65;;;5.80;99.90;;;;;;5089579;28;20031;-44
2021/10/24 07:13:15;;;;;;;14.93;10.68;;;5.90;99.90;;;;;;5089775;28;20055;-44
2021/10/24 07:15:41;;;;;;;12.32;9.43;;;5.90;99.90;;;;;;5088404;28;20036;-43
2021/10/24 07:18:06;;;;;;;12.15;9.77;;;5.90;99.90;;;;;;5089612;28;20074;-44
2021/10/24 07:20:32;;;;;;;14.07;10.57;;;5.90;99.90;;;;;;5089059;28;20042;-44
2021/10/24 07:22:57;;;;;;;15.77;9.98;;;5.90;99.90;;;;;;5088417;28;20016;-43
2021/10/24 07:25:25;;;;;;;13.95;10.07;;;5.90;99.90;;;;;;5088950;28;20031;-43
2021/10/24 07:27:53;;;;;;;13.25;10.27;;;5.90;99.90;;;;;;5089179;28;20217;-43
2021/10/24 07:30:20;;;;;;;13.63;10.27;;;5.90;99.90;;;;;;5088565;28;20031;-43
2021/10/24 07:32:46;;;;;;;15.93;10.85;;;6.00;99.90;;;;;;5088671;28;20027;-43
2021/10/24 07:35:12;;;;;;;14.30;10.73;;;6.00;99.90;;;;;;5089223;28;20364;-44
2021/10/24 07:37:40;;;;;;;13.77;9.82;;;6.00;99.90;;;;;;5088110;28;20012;-43
2021/10/24 07:40:07;;;;;;;12.88;9.57;;;6.00;99.90;;;;;;5089293;28;20036;-44
2021/10/24 07:42:33;;;;;;;13.27;10.18;;;6.10;99.90;;;;;;5088665;28;20477;-44
2021/10/24 07:44:59;;;;;;;12.80;10.15;;;6.10;99.90;;;;;;5088313;28;20162;-43
2021/10/24 07:47:25;;;;;;;12.05;9.90;;;6.10;99.90;;;;;;5088105;28;20411;-42
2021/10/24 07:49:51;;;;;;;14.07;9.57;;;6.10;99.90;;;;;;5087988;28;20036;-43
2021/10/24 07:52:20;;;;;;;12.48;10.45;;;6.10;99.90;;;;;;5088808;28;20028;-43
2021/10/24 07:54:46;;;;;;;11.82;9.98;;;6.10;99.90;;;;;;5087720;28;20504;-43
2021/10/24 07:57:11;;;;;;;13.55;9.85;;;6.20;99.90;;;;;;5088178;28;20042;-45
2021/10/24 07:59:37;;;;;;;13.93;10.48;;;6.20;99.90;;;;;;5088548;28;20043;-44
2021/10/24 08:02:10;;;;;;;13.20;10.80;;;6.20;99.90;;;;;;5088242;28;20024;-43
2021/10/24 08:04:37;;;;;;;14.10;10.13;;;6.20;99.90;;;;;;5087903;28;20051;-44
2021/10/24 08:07:03;;;;;;;11.48;9.95;;;6.30;99.90;;;;;;5088272;28;20028;-43
2021/10/24 08:09:30;;;;;;;13.68;10.05;;;6.30;99.90;;;;;;5088522;28;20112;-44
2021/10/24 08:11:57;;;;;;;11.60;9.43;;;6.30;99.90;;;;;;5087663;28;20105;-43
2021/10/24 08:14:23;;;;;;;15.05;10.02;;;6.30;99.90;;;;;;5088174;28;20162;-44
2021/10/24 08:16:48;;;;;;;16.30;10.55;;;6.30;99.90;;;;;;5088068;28;20020;-43
2021/10/24 08:19:15;;;;;;;15.38;10.65;;;6.40;99.90;;;;;;5083702;28;20034;-43
2021/10/24 08:21:40;;;;;;;12.30;9.90;;;6.40;99.90;;;;;;5088040;28;20024;-44
2021/10/24 08:24:06;;;;;;;14.35;9.63;;;6.50;99.90;;;;;;5087940;28;20020;-44
2021/10/24 08:26:32;;;;;;;13.38;9.02;;;6.50;99.90;;;;;;5087430;28;20038;-44
2021/10/24 08:28:58;;;;;;;13.98;9.73;;;6.60;99.90;;;;;;5087823;28;20031;-43
2021/10/24 08:31:26;;;;;;;13.05;9.32;;;6.60;99.90;;;;;;5088162;28;20111;-43
2021/10/24 08:33:53;;;;;;;12.30;9.02;;;6.70;99.90;;;;;;5087055;28;20036;-44
2021/10/24 08:36:19;;;;;;;14.65;9.95;;;6.70;99.90;;;;;;5088500;28;20024;-43
2021/10/24 08:38:44;;;;;;;11.05;8.65;;;6.80;99.90;;;;;;5087527;28;20062;-43
2021/10/24 08:41:11;;;;;;;15.95;12.15;;;6.80;99.90;;;;;;5087371;28;20462;-44
2021/10/24 08:43:38;;;;;;;16.75;11.27;;;6.90;99.90;;;;;;5087725;28;20028;-44
2021/10/24 08:46:05;;;;;;;13.75;11.57;;;7.00;99.90;;;;;;5087088;28;20520;-43
2021/10/24 08:48:33;;;;;;;18.20;12.23;;;7.00;99.90;;;;;;5087592;28;20055;-44
2021/10/24 08:51:00;;;;;;;17.60;11.18;;;7.10;99.90;;;;;;5087483;28;20467;-44
2021/10/24 08:53:29;;;;;;;15.93;11.15;;;7.10;99.90;;;;;;5086344;28;20031;-42
2021/10/24 08:55:55;;;;;;;16.77;11.07;;;7.20;99.90;;;;;;5076363;28;20396;-44
2021/10/24 08:58:21;;;;;;;19.42;12.07;;;7.30;99.90;;;;;;5086723;28;20106;-43
2021/10/24 09:00:51;;;;;;;16.08;11.00;;;7.30;99.90;;;;;;5086548;28;20043;-44
2021/10/24 09:03:16;;;;;;;15.75;10.07;;;7.40;99.90;;;;;;5087863;28;20032;-44
2021/10/24 09:05:45;;;;;;;13.45;10.38;;;7.40;99.90;;;;;;5087393;28;20825;-43
2021/10/24 09:08:17;;;;;;;15.88;10.13;;;7.50;99.90;;;;;;5087256;28;20025;-44
2021/10/24 09:10:47;;;;;;;14.05;9.13;;;7.50;99.90;;;;;;5086970;28;20031;-43
2021/10/24 09:13:17;;;;;;;13.70;9.65;;;7.50;99.90;;;;;;5087359;28;20020;-44
2021/10/24 09:15:52;;;;;;;12.75;9.55;;;7.60;99.90;;;;;;5086094;28;20017;-43
2021/10/24 09:18:20;;;;;;;11.65;9.30;;;7.60;99.90;;;;;;5087682;28;20024;-43
2021/10/24 09:20:46;;;;;;;13.95;9.80;;;7.60;99.90;;;;;;5086741;28;20039;-44
2021/10/24 09:23:16;;;;;;;12.82;9.60;;;7.70;99.90;;;;;;5086765;28;20024;-44
2021/10/24 09:25:51;;;;;;;10.23;8.80;;;7.80;99.90;;;;;;5086866;28;20028;-44
2021/10/24 09:28:20;;;;;;;14.50;9.40;;;7.80;99.90;;;;;;5066678;28;20086;-43
2021/10/24 09:30:46;;;;;;;12.88;9.57;;;7.90;99.90;;;;;;5081348;28;20039;-44
2021/10/24 09:33:13;;;;;;;13.48;9.50;;;8.00;99.90;;;;;;5087696;28;20112;-44
2021/10/24 09:35:44;;;;;;;11.32;8.82;;;8.00;99.90;;;;;;5086581;28;20405;-42
2021/10/24 09:38:21;;;;;;;14.13;9.13;;;8.10;99.90;;;;;;5087441;28;20496;-44
2021/10/24 09:40:50;;;;;;;10.43;7.85;;;8.10;99.90;;;;;;5086920;28;20475;-43
2021/10/24 09:43:25;;;;;;;11.98;8.45;;;8.20;99.90;;;;;;5086878;28;20028;-44
2021/10/24 09:45:57;;;;;;;11.52;9.00;;;8.30;99.90;;;;;;5086959;28;20028;-44
2021/10/24 09:48:28;;;;;;;15.05;8.40;;;8.30;99.90;;;;;;5087080;28;20020;-44
2021/10/24 09:50:57;;;;;;;11.25;8.20;;;8.30;99.90;;;;;;5086107;28;20032;-44
2021/10/24 09:53:25;;;;;;;10.45;7.57;;;8.40;99.90;;;;;;5087194;28;20025;-43
2021/10/24 09:55:53;;;;;;;12.38;8.90;;;8.40;99.90;;;;;;5087060;28;20044;-44
2021/10/24 09:58:29;;;;;;;10.15;8.02;;;8.40;99.90;;;;;;5086526;28;20024;-44
2021/10/24 10:00:55;;;;;;;9.25;7.30;;;8.50;99.90;;;;;;5086906;28;20066;-43
2021/10/24 10:03:22;;;;;;;10.65;7.80;;;8.50;99.90;;;;;;5086390;28;20043;-43
2021/10/24 10:05:47;;;;;;;12.75;8.90;;;8.60;99.90;;;;;;5087258;28;20130;-43
2021/10/24 10:08:18;;;;;;;11.20;8.25;;;8.60;99.90;;;;;;5086996;28;20142;-45
2021/10/24 10:10:58;;;;;;;13.27;8.40;;;8.70;99.90;;;;;;5089497;28;20032;-42
2021/10/24 10:13:25;;;;;;;13.15;8.98;;;8.80;99.90;;;;;;5090611;28;20020;-44
2021/10/24 10:15:52;;;;;;;12.82;8.60;;;8.80;99.90;;;;;;5090272;28;20036;-44
2021/10/24 10:18:21;;;;;;;11.32;8.45;;;8.90;99.90;;;;;;5090271;28;20043;-45
2021/10/24 10:20:48;;;;;;;12.45;7.65;;;8.90;99.90;;;;;;5090159;28;20039;-43
2021/10/24 10:23:15;;;;;;;10.82;8.48;;;8.90;99.90;;;;;;5089178;28;20023;-43
2021/10/24 10:25:43;;;;;;;11.98;8.77;;;9.00;99.90;;;;;;5089467;28;20031;-43
2021/10/24 10:28:12;;;;;;;10.27;7.32;;;9.00;99.90;;;;;;5090351;28;20016;-44
2021/10/24 10:30:40;;;;;;;10.73;7.70;;;9.10;99.90;;;;;;5090351;28;20091;-43
2021/10/24 10:33:29;;;;;;;13.38;8.07;;;9.10;99.90;;;;;;5089746;28;20111;-43
2021/10/24 10:35:55;;;;;;;11.80;7.75;;;9.10;99.90;;;;;;5070188;28;20099;-43
2021/10/24 10:38:41;;;;;;;12.90;8.45;;;9.10;99.90;;;;;;5087530;28;20024;-44
2021/10/24 10:41:08;;;;;;;12.15;8.13;;;9.20;99.90;;;;;;5090447;28;20036;-43
2021/10/24 10:43:34;;;;;;;10.95;7.93;;;9.20;99.90;;;;;;5089488;28;20031;-42
2021/10/24 10:46:05;;;;;;;12.27;8.73;;;9.30;99.90;;;;;;5089427;28;20391;-43
2021/10/24 10:48:36;;;;;;;9.63;7.50;;;9.30;99.90;;;;;;5089725;28;20085;-43
2021/10/24 10:51:24;;;;;;;10.82;7.63;;;9.40;99.90;;;;;;5089832;28;20106;-43
2021/10/24 10:53:51;;;;;;;13.07;8.35;;;9.50;99.90;;;;;;5088953;28;20089;-44
2021/10/24 10:56:20;;;;;;;11.77;8.13;;;9.50;99.90;;;;;;5090103;28;20052;-44
2021/10/24 10:58:51;;;;;;;8.02;6.53;;;9.60;99.90;;;;;;5089311;28;20024;-43
2021/10/24 11:01:39;;;;;;;10.15;7.53;;;9.60;99.90;;;;;;5089319;28;20028;-43
2021/10/24 11:04:07;;;;;;;8.95;6.65;;;9.70;99.90;;;;;;5089708;28;20436;-43
2021/10/24 11:06:36;;;;;;;8.18;6.60;;;9.70;99.90;;;;;;5089261;28;20479;-43
2021/10/24 11:09:06;;;;;;;11.35;8.32;;;9.80;99.90;;;;;;5088965;28;20667;-43
2021/10/24 11:11:41;;;;;;;8.98;7.85;;;9.80;99.90;;;;;;5089262;28;20028;-43
2021/10/24 11:14:15;;;;;;;12.38;8.70;;;9.90;99.90;;;;;;5087792;28;20104;-43
2021/10/24 11:16:42;;;;;;;10.68;7.32;;;10.00;99.90;;;;;;5089245;28;20184;-43
2021/10/24 11:19:28;;;;;;;9.93;7.63;;;10.10;99.90;;;;;;5089134;28;20491;-44
2021/10/24 11:21:58;;;;;;;8.15;7.10;;;10.10;99.90;;;;;;5088226;28;20059;-43
2021/10/24 11:24:41;;;;;;;9.60;7.40;;;10.20;99.90;;;;;;5088851;28;20055;-44
2021/10/24 11:27:08;;;;;;;;;;;10.30;99.90;;;;;;5090101;28;20092;-44
2021/10/24 11:29:33;;;;;;;12.93;7.68;;;10.30;99.90;;;;;;5088644;28;19904;-43
2021/10/24 11:32:30;;;;;;;9.80;7.07;;;10.40;99.90;;;;;;5089302;28;20049;-43
2021/10/24 11:34:57;;;;;;;8.48;7.03;;;10.40;99.90;;;;;;5088303;28;20032;-43
2021/10/24 11:37:38;;;;;;;9.32;6.63;;;10.40;99.90;;;;;;5088965;28;20028;-42
2021/10/24 11:40:09;;;;;;;9.13;7.43;;;10.40;99.90;;;;;;5088789;28;20054;-44
2021/10/24 11:42:36;;;;;;;10.25;7.28;;;10.50;99.90;;;;;;5088243;28;20055;-44
2021/10/24 11:45:24;;;;;;;9.95;7.22;;;10.50;99.90;;;;;;5088458;28;20491;-43
2021/10/24 11:48:21;;;;;;;11.07;7.15;;;10.60;99.90;;;;;;5089004;28;20020;-43
2021/10/24 11:50:54;;;;;;;9.40;7.25;;;10.70;99.90;;;;;;5087969;28;20068;-43
2021/10/24 11:53:24;;;;;;;8.98;6.45;;;10.70;99.90;;;;;;5088534;28;20492;-45
2021/10/24 11:55:54;;;;;;;8.25;6.28;;;10.80;99.90;;;;;;5087852;28;20020;-43
2021/10/24 11:58:32;;;;;;;7.45;6.15;;;10.90;99.90;;;;;;5074721;28;20503;-43
2021/10/24 12:01:31;;;;;;;8.25;6.30;;;10.90;99.90;;;;;;5088596;28;20028;-44
2021/10/24 12:04:04;;;;;;;10.13;6.40;;;11.00;99.90;;;;;;5064734;28;20037;-44
2021/10/24 12:06:48;;;;;;;;;;;11.00;99.90;;;;;;5087856;28;20059;-43
2021/10/24 12:09:24;;;;;;;8.10;5.35;;;11.00;99.90;;;;;;5088649;28;19904;-43
2021/10/24 12:11:50;;;;;;;9.20;6.30;;;11.00;99.90;;;;;;5087564;28;20016;-44
2021/10/24 12:14:16;;;;;;;9.05;6.68;;;11.10;99.90;;;;;;5088606;28;20024;-43
2021/10/24 12:16:45;;;;;;;9.48;5.72;;;11.10;99.90;;;;;;5087611;28;20052;-44
2021/10/24 12:19:30;;;;;;;9.32;6.38;;;11.10;99.90;;;;;;5087836;28;20043;-44
2021/10/24 12:22:00;;;;;;;8.90;6.13;;;11.20;99.90;;;;;;5088166;28;20105;-45
2021/10/24 12:24:45;;;;;;;7.15;5.60;;;11.30;99.90;;;;;;5087567;28;20421;-43
2021/10/24 12:27:25;;;;;;;6.13;5.28;;;11.30;99.90;;;;;;5088116;28;20496;-44
2021/10/24 12:29:55;;;;;;;9.70;5.72;;;11.30;99.90;;;;;;5088388;28;20016;-44
2021/10/24 12:32:21;;;;;;;7.53;5.70;;;11.30;99.90;;;;;;5086348;28;20039;-44
2021/10/24 12:35:04;;;;;;;7.15;5.47;;;11.30;99.90;;;;;;5087972;28;20028;-43
2021/10/24 12:37:30;;;;;;;6.60;5.22;;;11.30;99.90;;;;;;5087566;28;20054;-43
2021/10/24 12:40:20;;;;;;;9.43;5.97;;;11.30;99.90;;;;;;5087392;28;20087;-43
2021/10/24 12:43:24;;;;;;;7.82;6.00;;;11.40;99.90;;;;;;5087337;28;20048;-43
2021/10/24 12:45:54;;;;;;;7.63;5.60;;;11.40;99.90;;;;;;5004233;28;20057;-43
2021/10/24 12:48:22;;;;;;;7.50;5.75;;;11.50;99.90;;;;;;5005434;28;20022;-44
2021/10/24 12:50:49;;;;;;;7.40;5.63;;;11.60;99.90;;;;;;5046637;28;20421;-43
2021/10/24 12:53:17;;;;;;;7.60;5.72;;;11.60;99.90;;;;;;5086180;28;20032;-44
2021/10/24 12:56:02;;;;;;;7.32;5.53;;;11.70;99.90;;;;;;5087462;28;20059;-43